sensor_id;sensor_type;location;lat;lon;timestamp;P1;durP1;ratioP1;P2;durP2;ratioP2
3433;SDS011;1730;41.932;25.548;2023-04-01T00:00:54;4.50;;;3.97;;
3433;SDS011;1730;41.932;25.548;2023-04-01T00:03:21;6.97;;;4.20;;
3433;SDS011;1730;41.932;25.548;2023-04-01T00:05:47;8.43;;;3.97;;
3433;SDS011;1730;41.932;25.548;2023-04-01T00:08:13;7.70;;;4.20;;
3433;SDS011;1730;41.932;25.548;2023-04-01T00:10:39;4.33;;;2.87;;
3433;SDS011;1730;41.932;25.548;2023-04-01T00:13:05;5.70;;;3.93;;
3433;SDS011;1730;41.932;25.548;2023-04-01T00:15:30;6.23;;;4.47;;
3433;SDS011;1730;41.932;25.548;2023-04-01T00:17:56;3.03;;;2.83;;
3433;SDS011;1730;41.932;25.548;2023-04-01T00:20:22;4.87;;;3.23;;
3433;SDS011;1730;41.932;25.548;2023-04-01T00:22:48;5.17;;;3.20;;
3433;SDS011;1730;41.932;25.548;2023-04-01T00:25:13;3.03;;;2.83;;
3433;SDS011;1730;41.932;25.548;2023-04-01T00:27:39;3.67;;;3.30;;
3433;SDS011;1730;41.932;25.548;2023-04-01T00:30:05;4.60;;;3.60;;
3433;SDS011;1730;41.932;25.548;2023-04-01T00:32:32;3.70;;;3.40;;
3433;SDS011;1730;41.932;25.548;2023-04-01T00:34:58;5.53;;;3.80;;
3433;SDS011;1730;41.932;25.548;2023-04-01T00:37:25;10.30;;;3.80;;
3433;SDS011;1730;41.932;25.548;2023-04-01T00:39:51;4.27;;;3.60;;
3433;SDS011;1730;41.932;25.548;2023-04-01T00:42:16;8.13;;;3.57;;
3433;SDS011;1730;41.932;25.548;2023-04-01T00:44:44;4.07;;;3.30;;
3433;SDS011;1730;41.932;25.548;2023-04-01T00:47:13;4.23;;;3.47;;
3433;SDS011;1730;41.932;25.548;2023-04-01T00:49:40;6.67;;;3.73;;
3433;SDS011;1730;41.932;25.548;2023-04-01T00:52:11;5.43;;;3.77;;
3433;SDS011;1730;41.932;25.548;2023-04-01T00:54:39;4.93;;;3.90;;
3433;SDS011;1730;41.932;25.548;2023-04-01T00:57:09;6.60;;;4.23;;
3433;SDS011;1730;41.932;25.548;2023-04-01T00:59:43;7.00;;;3.97;;
3433;SDS011;1730;41.932;25.548;2023-04-01T01:02:13;8.20;;;5.00;;
3433;SDS011;1730;41.932;25.548;2023-04-01T01:04:40;4.20;;;3.80;;
3433;SDS011;1730;41.932;25.548;2023-04-01T01:18:27;3.50;;;3.20;;
3433;SDS011;1730;41.932;25.548;2023-04-01T01:29:11;5.33;;;3.80;;
3433;SDS011;1730;41.932;25.548;2023-04-01T01:37:17;6.30;;;4.20;;
3433;SDS011;1730;41.932;25.548;2023-04-01T01:39:48;5.70;;;4.40;;
3433;SDS011;1730;41.932;25.548;2023-04-01T01:42:19;6.70;;;3.87;;
3433;SDS011;1730;41.932;25.548;2023-04-01T01:44:48;4.40;;;3.70;;
3433;SDS011;1730;41.932;25.548;2023-04-01T01:47:16;4.43;;;3.33;;
3433;SDS011;1730;41.932;25.548;2023-04-01T01:49:43;6.13;;;4.20;;
3433;SDS011;1730;41.932;25.548;2023-04-01T01:52:11;9.53;;;4.80;;
3433;SDS011;1730;41.932;25.548;2023-04-01T01:54:51;7.27;;;5.87;;
3433;SDS011;1730;41.932;25.548;2023-04-01T01:57:23;12.17;;;6.17;;
3433;SDS011;1730;41.932;25.548;2023-04-01T01:59:56;5.23;;;4.73;;
3433;SDS011;1730;41.932;25.548;2023-04-01T02:02:26;8.87;;;6.43;;
3433;SDS011;1730;41.932;25.548;2023-04-01T02:04:56;7.90;;;6.10;;
3433;SDS011;1730;41.932;25.548;2023-04-01T02:07:27;7.33;;;4.90;;
3433;SDS011;1730;41.932;25.548;2023-04-01T02:09:58;16.17;;;6.70;;
3433;SDS011;1730;41.932;25.548;2023-04-01T02:12:24;8.13;;;5.47;;
3433;SDS011;1730;41.932;25.548;2023-04-01T02:14:54;9.03;;;6.53;;
3433;SDS011;1730;41.932;25.548;2023-04-01T02:17:29;5.70;;;5.03;;
3433;SDS011;1730;41.932;25.548;2023-04-01T02:20:01;7.00;;;5.70;;
3433;SDS011;1730;41.932;25.548;2023-04-01T02:22:32;8.37;;;5.00;;
3433;SDS011;1730;41.932;25.548;2023-04-01T02:25:05;5.77;;;4.70;;
3433;SDS011;1730;41.932;25.548;2023-04-01T02:27:34;12.77;;;6.07;;
3433;SDS011;1730;41.932;25.548;2023-04-01T02:30:00;10.80;;;5.50;;
3433;SDS011;1730;41.932;25.548;2023-04-01T02:32:26;5.80;;;5.30;;
3433;SDS011;1730;41.932;25.548;2023-04-01T02:34:54;8.07;;;5.30;;
3433;SDS011;1730;41.932;25.548;2023-04-01T02:37:21;11.60;;;5.50;;
3433;SDS011;1730;41.932;25.548;2023-04-01T02:39:46;6.40;;;4.97;;
3433;SDS011;1730;41.932;25.548;2023-04-01T02:42:13;8.73;;;6.33;;
3433;SDS011;1730;41.932;25.548;2023-04-01T02:44:38;14.17;;;8.73;;
3433;SDS011;1730;41.932;25.548;2023-04-01T02:47:04;15.70;;;8.30;;
3433;SDS011;1730;41.932;25.548;2023-04-01T02:49:29;8.43;;;6.47;;
3433;SDS011;1730;41.932;25.548;2023-04-01T02:51:55;7.93;;;6.73;;
3433;SDS011;1730;41.932;25.548;2023-04-01T02:54:20;11.60;;;6.10;;
3433;SDS011;1730;41.932;25.548;2023-04-01T02:56:46;9.33;;;5.77;;
3433;SDS011;1730;41.932;25.548;2023-04-01T02:59:11;6.03;;;5.43;;
3433;SDS011;1730;41.932;25.548;2023-04-01T03:01:37;6.60;;;5.87;;
3433;SDS011;1730;41.932;25.548;2023-04-01T03:04:03;7.67;;;5.50;;
3433;SDS011;1730;41.932;25.548;2023-04-01T03:06:28;8.73;;;6.03;;
3433;SDS011;1730;41.932;25.548;2023-04-01T03:08:54;9.97;;;7.73;;
3433;SDS011;1730;41.932;25.548;2023-04-01T03:11:19;6.87;;;5.40;;
3433;SDS011;1730;41.932;25.548;2023-04-01T03:13:46;7.53;;;6.20;;
3433;SDS011;1730;41.932;25.548;2023-04-01T03:16:12;6.60;;;5.67;;
3433;SDS011;1730;41.932;25.548;2023-04-01T03:18:37;14.40;;;8.10;;
3433;SDS011;1730;41.932;25.548;2023-04-01T03:21:13;11.30;;;8.10;;
3433;SDS011;1730;41.932;25.548;2023-04-01T03:23:39;13.43;;;9.17;;
3433;SDS011;1730;41.932;25.548;2023-04-01T03:26:05;13.17;;;8.60;;
3433;SDS011;1730;41.932;25.548;2023-04-01T03:28:30;10.80;;;7.97;;
3433;SDS011;1730;41.932;25.548;2023-04-01T03:30:56;15.50;;;8.63;;
3433;SDS011;1730;41.932;25.548;2023-04-01T03:33:21;12.23;;;8.07;;
3433;SDS011;1730;41.932;25.548;2023-04-01T03:35:47;12.20;;;7.60;;
3433;SDS011;1730;41.932;25.548;2023-04-01T03:38:12;10.20;;;8.00;;
3433;SDS011;1730;41.932;25.548;2023-04-01T03:40:41;8.03;;;7.23;;
3433;SDS011;1730;41.932;25.548;2023-04-01T03:43:07;10.40;;;6.80;;
3433;SDS011;1730;41.932;25.548;2023-04-01T03:45:33;7.50;;;6.20;;
3433;SDS011;1730;41.932;25.548;2023-04-01T03:47:58;14.60;;;6.20;;
3433;SDS011;1730;41.932;25.548;2023-04-01T03:50:24;10.40;;;7.10;;
3433;SDS011;1730;41.932;25.548;2023-04-01T03:52:50;9.70;;;5.93;;
3433;SDS011;1730;41.932;25.548;2023-04-01T03:55:16;7.10;;;5.93;;
3433;SDS011;1730;41.932;25.548;2023-04-01T03:57:43;7.17;;;5.83;;
3433;SDS011;1730;41.932;25.548;2023-04-01T04:00:09;5.80;;;5.30;;
3433;SDS011;1730;41.932;25.548;2023-04-01T04:02:35;6.70;;;5.83;;
3433;SDS011;1730;41.932;25.548;2023-04-01T04:05:01;7.00;;;5.90;;
3433;SDS011;1730;41.932;25.548;2023-04-01T04:07:27;7.60;;;5.87;;
3433;SDS011;1730;41.932;25.548;2023-04-01T04:09:52;6.70;;;6.10;;
3433;SDS011;1730;41.932;25.548;2023-04-01T04:12:18;10.70;;;7.47;;
3433;SDS011;1730;41.932;25.548;2023-04-01T04:14:43;10.63;;;8.00;;
3433;SDS011;1730;41.932;25.548;2023-04-01T04:17:11;9.37;;;8.20;;
3433;SDS011;1730;41.932;25.548;2023-04-01T04:19:41;8.07;;;6.50;;
3433;SDS011;1730;41.932;25.548;2023-04-01T04:22:07;8.70;;;6.93;;
3433;SDS011;1730;41.932;25.548;2023-04-01T04:24:33;13.77;;;8.10;;
3433;SDS011;1730;41.932;25.548;2023-04-01T04:27:00;8.63;;;7.40;;
3433;SDS011;1730;41.932;25.548;2023-04-01T04:29:25;14.53;;;7.77;;
3433;SDS011;1730;41.932;25.548;2023-04-01T04:31:51;11.50;;;7.67;;
3433;SDS011;1730;41.932;25.548;2023-04-01T04:34:17;9.50;;;7.67;;
3433;SDS011;1730;41.932;25.548;2023-04-01T04:36:43;14.37;;;8.93;;
3433;SDS011;1730;41.932;25.548;2023-04-01T04:39:09;10.70;;;7.80;;
3433;SDS011;1730;41.932;25.548;2023-04-01T04:41:36;12.10;;;8.60;;
3433;SDS011;1730;41.932;25.548;2023-04-01T04:44:02;9.70;;;8.07;;
3433;SDS011;1730;41.932;25.548;2023-04-01T04:46:28;13.23;;;7.70;;
3433;SDS011;1730;41.932;25.548;2023-04-01T04:48:53;17.23;;;11.23;;
3433;SDS011;1730;41.932;25.548;2023-04-01T04:51:19;21.00;;;14.50;;
3433;SDS011;1730;41.932;25.548;2023-04-01T04:53:45;17.60;;;14.43;;
3433;SDS011;1730;41.932;25.548;2023-04-01T04:56:11;17.83;;;13.37;;
3433;SDS011;1730;41.932;25.548;2023-04-01T04:58:38;19.27;;;13.50;;
3433;SDS011;1730;41.932;25.548;2023-04-01T05:01:11;16.13;;;13.23;;
3433;SDS011;1730;41.932;25.548;2023-04-01T05:03:38;16.83;;;11.63;;
3433;SDS011;1730;41.932;25.548;2023-04-01T05:06:04;15.63;;;10.87;;
3433;SDS011;1730;41.932;25.548;2023-04-01T05:08:31;15.63;;;10.10;;
3433;SDS011;1730;41.932;25.548;2023-04-01T05:10:58;15.43;;;10.30;;
3433;SDS011;1730;41.932;25.548;2023-04-01T05:13:23;16.97;;;10.43;;
3433;SDS011;1730;41.932;25.548;2023-04-01T05:15:49;13.83;;;9.60;;
3433;SDS011;1730;41.932;25.548;2023-04-01T05:18:15;12.30;;;8.37;;
3433;SDS011;1730;41.932;25.548;2023-04-01T05:20:45;9.30;;;8.10;;
3433;SDS011;1730;41.932;25.548;2023-04-01T05:23:13;13.47;;;8.90;;
3433;SDS011;1730;41.932;25.548;2023-04-01T05:25:38;9.83;;;7.23;;
3433;SDS011;1730;41.932;25.548;2023-04-01T05:28:04;10.50;;;8.23;;
3433;SDS011;1730;41.932;25.548;2023-04-01T05:30:29;8.60;;;6.23;;
3433;SDS011;1730;41.932;25.548;2023-04-01T05:32:54;8.00;;;7.33;;
3433;SDS011;1730;41.932;25.548;2023-04-01T05:35:20;15.37;;;7.93;;
3433;SDS011;1730;41.932;25.548;2023-04-01T05:37:46;7.97;;;7.27;;
3433;SDS011;1730;41.932;25.548;2023-04-01T05:40:20;14.90;;;7.90;;
3433;SDS011;1730;41.932;25.548;2023-04-01T05:42:46;11.03;;;7.93;;
3433;SDS011;1730;41.932;25.548;2023-04-01T05:45:11;11.53;;;9.73;;
3433;SDS011;1730;41.932;25.548;2023-04-01T05:47:40;6.93;;;5.80;;
3433;SDS011;1730;41.932;25.548;2023-04-01T05:50:05;16.80;;;11.00;;
3433;SDS011;1730;41.932;25.548;2023-04-01T05:52:31;8.57;;;7.77;;
3433;SDS011;1730;41.932;25.548;2023-04-01T05:54:57;12.50;;;6.47;;
3433;SDS011;1730;41.932;25.548;2023-04-01T05:57:23;10.43;;;7.07;;
3433;SDS011;1730;41.932;25.548;2023-04-01T05:59:49;8.73;;;7.70;;
3433;SDS011;1730;41.932;25.548;2023-04-01T06:02:16;9.67;;;8.63;;
3433;SDS011;1730;41.932;25.548;2023-04-01T06:04:42;9.47;;;7.90;;
3433;SDS011;1730;41.932;25.548;2023-04-01T06:07:11;10.53;;;7.40;;
3433;SDS011;1730;41.932;25.548;2023-04-01T06:09:38;14.93;;;6.27;;
3433;SDS011;1730;41.932;25.548;2023-04-01T06:25:07;10.40;;;7.53;;
3433;SDS011;1730;41.932;25.548;2023-04-01T06:35:43;20.23;;;6.00;;
3433;SDS011;1730;41.932;25.548;2023-04-01T06:46:57;19.60;;;7.30;;
3433;SDS011;1730;41.932;25.548;2023-04-01T06:54:40;15.07;;;7.80;;
3433;SDS011;1730;41.932;25.548;2023-04-01T06:57:22;12.13;;;8.53;;
3433;SDS011;1730;41.932;25.548;2023-04-01T06:59:55;13.37;;;8.80;;
3433;SDS011;1730;41.932;25.548;2023-04-01T07:04:54;16.90;;;9.87;;
3433;SDS011;1730;41.932;25.548;2023-04-01T07:07:35;24.63;;;8.47;;
3433;SDS011;1730;41.932;25.548;2023-04-01T07:10:16;10.90;;;9.40;;
3433;SDS011;1730;41.932;25.548;2023-04-01T07:12:54;9.93;;;8.90;;
3433;SDS011;1730;41.932;25.548;2023-04-01T07:15:33;16.27;;;9.67;;
3433;SDS011;1730;41.932;25.548;2023-04-01T07:18:17;19.10;;;10.20;;
3433;SDS011;1730;41.932;25.548;2023-04-01T07:20:50;15.13;;;10.20;;
3433;SDS011;1730;41.932;25.548;2023-04-01T07:23:21;15.20;;;11.13;;
3433;SDS011;1730;41.932;25.548;2023-04-01T07:25:58;15.93;;;9.83;;
3433;SDS011;1730;41.932;25.548;2023-04-01T07:28:31;15.80;;;10.30;;
3433;SDS011;1730;41.932;25.548;2023-04-01T07:44:52;6.00;;;4.20;;
3433;SDS011;1730;41.932;25.548;2023-04-01T07:50:41;12.47;;;3.80;;
3433;SDS011;1730;41.932;25.548;2023-04-01T07:53:19;8.03;;;3.37;;
3433;SDS011;1730;41.932;25.548;2023-04-01T07:56:12;8.10;;;3.87;;
3433;SDS011;1730;41.932;25.548;2023-04-01T08:01:53;8.97;;;4.10;;
3433;SDS011;1730;41.932;25.548;2023-04-01T08:04:44;9.30;;;3.90;;
3433;SDS011;1730;41.932;25.548;2023-04-01T08:10:32;11.43;;;4.10;;
3433;SDS011;1730;41.932;25.548;2023-04-01T08:13:11;12.97;;;4.00;;
3433;SDS011;1730;41.932;25.548;2023-04-01T08:15:59;13.50;;;4.00;;
3433;SDS011;1730;41.932;25.548;2023-04-01T08:20:57;9.73;;;3.97;;
3433;SDS011;1730;41.932;25.548;2023-04-01T08:23:33;13.93;;;4.33;;
3433;SDS011;1730;41.932;25.548;2023-04-01T08:26:08;9.90;;;3.70;;
3433;SDS011;1730;41.932;25.548;2023-04-01T08:28:43;17.50;;;3.77;;
3433;SDS011;1730;41.932;25.548;2023-04-01T08:31:24;11.30;;;4.30;;
3433;SDS011;1730;41.932;25.548;2023-04-01T08:34:17;5.03;;;3.20;;
3433;SDS011;1730;41.932;25.548;2023-04-01T08:36:49;8.33;;;3.50;;
3433;SDS011;1730;41.932;25.548;2023-04-01T08:39:33;11.77;;;4.30;;
3433;SDS011;1730;41.932;25.548;2023-04-01T08:42:23;12.80;;;3.70;;
3433;SDS011;1730;41.932;25.548;2023-04-01T08:45:10;10.23;;;3.77;;
3433;SDS011;1730;41.932;25.548;2023-04-01T08:47:50;3.87;;;3.07;;
3433;SDS011;1730;41.932;25.548;2023-04-01T08:51:16;12.47;;;3.70;;
3433;SDS011;1730;41.932;25.548;2023-04-01T08:56:42;5.67;;;3.43;;
3433;SDS011;1730;41.932;25.548;2023-04-01T09:10:49;10.10;;;3.10;;
3433;SDS011;1730;41.932;25.548;2023-04-01T09:13:20;13.30;;;;;
3433;SDS011;1730;41.932;25.548;2023-04-01T09:16:16;12.13;;;3.73;;
3433;SDS011;1730;41.932;25.548;2023-04-01T09:22:01;15.30;;;3.60;;
3433;SDS011;1730;41.932;25.548;2023-04-01T09:27:46;11.13;;;4.23;;
3433;SDS011;1730;41.932;25.548;2023-04-01T09:36:54;7.57;;;3.53;;
3433;SDS011;1730;41.932;25.548;2023-04-01T09:40:08;8.40;;;4.40;;
3433;SDS011;1730;41.932;25.548;2023-04-01T09:42:41;14.63;;;4.90;;
3433;SDS011;1730;41.932;25.548;2023-04-01T09:57:30;8.10;;;3.60;;
3433;SDS011;1730;41.932;25.548;2023-04-01T10:14:31;7.30;;;3.40;;
3433;SDS011;1730;41.932;25.548;2023-04-01T10:23:06;8.53;;;3.97;;
3433;SDS011;1730;41.932;25.548;2023-04-01T10:36:56;7.30;;;2.67;;
3433;SDS011;1730;41.932;25.548;2023-04-01T10:39:33;11.00;;;3.37;;
3433;SDS011;1730;41.932;25.548;2023-04-01T10:42:20;6.70;;;3.33;;
3433;SDS011;1730;41.932;25.548;2023-04-01T10:56:56;5.43;;;2.63;;
3433;SDS011;1730;41.932;25.548;2023-04-01T11:27:30;12.00;;;3.40;;
3433;SDS011;1730;41.932;25.548;2023-04-01T11:35:42;12.00;;;3.13;;
3433;SDS011;1730;41.932;25.548;2023-04-01T11:40:54;11.63;;;4.00;;
3433;SDS011;1730;41.932;25.548;2023-04-01T11:50:02;19.03;;;3.73;;
3433;SDS011;1730;41.932;25.548;2023-04-01T12:06:18;12.83;;;3.03;;
3433;SDS011;1730;41.932;25.548;2023-04-01T12:08:46;14.50;;;4.60;;
3433;SDS011;1730;41.932;25.548;2023-04-01T12:14:20;11.37;;;3.53;;
3433;SDS011;1730;41.932;25.548;2023-04-01T12:17:08;11.53;;;3.37;;
3433;SDS011;1730;41.932;25.548;2023-04-01T12:28:03;11.10;;;3.43;;
3433;SDS011;1730;41.932;25.548;2023-04-01T12:30:57;11.60;;;3.53;;
3433;SDS011;1730;41.932;25.548;2023-04-01T12:33:52;9.70;;;3.20;;
3433;SDS011;1730;41.932;25.548;2023-04-01T12:53:06;12.13;;;3.20;;
3433;SDS011;1730;41.932;25.548;2023-04-01T12:56:03;10.50;;;3.40;;
3433;SDS011;1730;41.932;25.548;2023-04-01T13:04:12;19.73;;;3.10;;
3433;SDS011;1730;41.932;25.548;2023-04-01T13:09:52;7.73;;;3.20;;
3433;SDS011;1730;41.932;25.548;2023-04-01T13:13:19;7.90;;;2.87;;
3433;SDS011;1730;41.932;25.548;2023-04-01T13:21:21;12.60;;;3.80;;
3433;SDS011;1730;41.932;25.548;2023-04-01T13:30:16;12.83;;;3.57;;
3433;SDS011;1730;41.932;25.548;2023-04-01T13:38:05;10.57;;;3.50;;
3433;SDS011;1730;41.932;25.548;2023-04-01T13:43:22;9.87;;;3.40;;
3433;SDS011;1730;41.932;25.548;2023-04-01T13:51:52;12.27;;;3.23;;
3433;SDS011;1730;41.932;25.548;2023-04-01T13:54:57;11.90;;;3.60;;
3433;SDS011;1730;41.932;25.548;2023-04-01T14:05:55;8.90;;;3.10;;
3433;SDS011;1730;41.932;25.548;2023-04-01T14:36:46;11.40;;;3.60;;
3433;SDS011;1730;41.932;25.548;2023-04-01T14:42:31;17.00;;;6.67;;
3433;SDS011;1730;41.932;25.548;2023-04-01T14:50:27;29.67;;;9.47;;
3433;SDS011;1730;41.932;25.548;2023-04-01T14:52:59;12.80;;;8.87;;
3433;SDS011;1730;41.932;25.548;2023-04-01T15:03:30;11.17;;;7.50;;
3433;SDS011;1730;41.932;25.548;2023-04-01T15:14:30;9.93;;;7.10;;
3433;SDS011;1730;41.932;25.548;2023-04-01T15:20:08;12.23;;;5.80;;
3433;SDS011;1730;41.932;25.548;2023-04-01T15:33:21;8.50;;;7.70;;
3433;SDS011;1730;41.932;25.548;2023-04-01T15:36:01;12.33;;;8.33;;
3433;SDS011;1730;41.932;25.548;2023-04-01T15:41:16;9.50;;;7.80;;
3433;SDS011;1730;41.932;25.548;2023-04-01T15:43:52;14.90;;;10.20;;
3433;SDS011;1730;41.932;25.548;2023-04-01T15:49:34;8.77;;;7.60;;
3433;SDS011;1730;41.932;25.548;2023-04-01T15:52:11;12.83;;;8.10;;
3433;SDS011;1730;41.932;25.548;2023-04-01T15:54:55;16.10;;;9.30;;
3433;SDS011;1730;41.932;25.548;2023-04-01T16:09:02;7.83;;;7.03;;
3433;SDS011;1730;41.932;25.548;2023-04-01T16:25:44;25.00;;;16.93;;
3433;SDS011;1730;41.932;25.548;2023-04-01T16:28:19;14.37;;;10.87;;
3433;SDS011;1730;41.932;25.548;2023-04-01T16:34:14;15.47;;;12.30;;
3433;SDS011;1730;41.932;25.548;2023-04-01T16:36:28;16.80;;;13.63;;
3433;SDS011;1730;41.932;25.548;2023-04-01T16:47:58;8.20;;;6.17;;
3433;SDS011;1730;41.932;25.548;2023-04-01T16:53:02;10.23;;;7.67;;
3433;SDS011;1730;41.932;25.548;2023-04-01T17:01:27;7.70;;;6.90;;
3433;SDS011;1730;41.932;25.548;2023-04-01T17:04:07;10.57;;;7.70;;
3433;SDS011;1730;41.932;25.548;2023-04-01T17:07:11;14.20;;;7.60;;
3433;SDS011;1730;41.932;25.548;2023-04-01T17:18:23;24.00;;;16.67;;
3433;SDS011;1730;41.932;25.548;2023-04-01T17:21:39;31.83;;;25.20;;
3433;SDS011;1730;41.932;25.548;2023-04-01T17:23:45;31.70;;;26.30;;
3433;SDS011;1730;41.932;25.548;2023-04-01T17:28:58;22.60;;;18.80;;
3433;SDS011;1730;41.932;25.548;2023-04-01T17:36:32;13.27;;;11.80;;
3433;SDS011;1730;41.932;25.548;2023-04-01T17:39:13;23.07;;;14.67;;
3433;SDS011;1730;41.932;25.548;2023-04-01T17:42:14;16.17;;;10.90;;
3433;SDS011;1730;41.932;25.548;2023-04-01T17:44:52;12.10;;;9.10;;
3433;SDS011;1730;41.932;25.548;2023-04-01T17:47:22;9.33;;;8.43;;
3433;SDS011;1730;41.932;25.548;2023-04-01T17:50:28;41.10;;;23.63;;
3433;SDS011;1730;41.932;25.548;2023-04-01T17:59:44;22.27;;;14.60;;
3433;SDS011;1730;41.932;25.548;2023-04-01T18:05:05;20.03;;;13.40;;
3433;SDS011;1730;41.932;25.548;2023-04-01T18:07:51;13.33;;;11.73;;
3433;SDS011;1730;41.932;25.548;2023-04-01T18:13:38;12.97;;;10.60;;
3433;SDS011;1730;41.932;25.548;2023-04-01T18:16:22;12.20;;;11.00;;
3433;SDS011;1730;41.932;25.548;2023-04-01T18:32:52;16.60;;;14.30;;
3433;SDS011;1730;41.932;25.548;2023-04-01T18:35:29;22.20;;;15.83;;
3433;SDS011;1730;41.932;25.548;2023-04-01T18:38:14;21.90;;;15.30;;
3433;SDS011;1730;41.932;25.548;2023-04-01T18:40:51;18.80;;;14.33;;
3433;SDS011;1730;41.932;25.548;2023-04-01T18:43:30;23.00;;;16.53;;
3433;SDS011;1730;41.932;25.548;2023-04-01T18:46:05;18.97;;;15.77;;
3433;SDS011;1730;41.932;25.548;2023-04-01T18:48:51;17.03;;;13.77;;
3433;SDS011;1730;41.932;25.548;2023-04-01T18:51:40;17.20;;;14.00;;
3433;SDS011;1730;41.932;25.548;2023-04-01T18:54:27;16.60;;;14.77;;
3433;SDS011;1730;41.932;25.548;2023-04-01T18:57:10;17.57;;;15.60;;
3433;SDS011;1730;41.932;25.548;2023-04-01T18:59:41;20.37;;;14.77;;
3433;SDS011;1730;41.932;25.548;2023-04-01T19:22:03;5.70;;;5.20;;
3433;SDS011;1730;41.932;25.548;2023-04-01T19:27:40;6.93;;;4.57;;
3433;SDS011;1730;41.932;25.548;2023-04-01T19:30:20;5.10;;;3.80;;
3433;SDS011;1730;41.932;25.548;2023-04-01T19:32:58;4.13;;;3.83;;
3433;SDS011;1730;41.932;25.548;2023-04-01T19:46:43;2.30;;;2.10;;
3433;SDS011;1730;41.932;25.548;2023-04-01T19:54:43;2.37;;;1.77;;
3433;SDS011;1730;41.932;25.548;2023-04-01T20:08:43;1.60;;;1.50;;
3433;SDS011;1730;41.932;25.548;2023-04-01T20:11:13;1.47;;;1.37;;
3433;SDS011;1730;41.932;25.548;2023-04-01T20:19:25;1.70;;;1.57;;
3433;SDS011;1730;41.932;25.548;2023-04-01T20:25:06;1.47;;;1.37;;
3433;SDS011;1730;41.932;25.548;2023-04-01T20:27:50;1.50;;;1.37;;
3433;SDS011;1730;41.932;25.548;2023-04-01T20:36:08;1.60;;;1.50;;
3433;SDS011;1730;41.932;25.548;2023-04-01T20:39:13;5.23;;;1.50;;
3433;SDS011;1730;41.932;25.548;2023-04-01T20:41:40;2.27;;;1.57;;
3433;SDS011;1730;41.932;25.548;2023-04-01T20:44:42;1.50;;;1.40;;
3433;SDS011;1730;41.932;25.548;2023-04-01T20:53:27;2.23;;;1.50;;
3433;SDS011;1730;41.932;25.548;2023-04-01T20:56:10;1.50;;;1.40;;
3433;SDS011;1730;41.932;25.548;2023-04-01T21:03:45;1.50;;;1.40;;
3433;SDS011;1730;41.932;25.548;2023-04-01T21:24:30;2.23;;;1.93;;
3433;SDS011;1730;41.932;25.548;2023-04-01T21:27:03;2.07;;;1.77;;
3433;SDS011;1730;41.932;25.548;2023-04-01T21:30:07;2.20;;;2.10;;
3433;SDS011;1730;41.932;25.548;2023-04-01T21:55:27;2.10;;;2.00;;
3433;SDS011;1730;41.932;25.548;2023-04-01T22:01:04;2.27;;;2.17;;
3433;SDS011;1730;41.932;25.548;2023-04-01T22:03:41;2.53;;;2.03;;
3433;SDS011;1730;41.932;25.548;2023-04-01T22:06:59;2.07;;;1.97;;
3433;SDS011;1730;41.932;25.548;2023-04-01T22:09:28;2.40;;;2.30;;
3433;SDS011;1730;41.932;25.548;2023-04-01T22:19:56;1.80;;;1.70;;
3433;SDS011;1730;41.932;25.548;2023-04-01T22:25:35;2.43;;;2.23;;
3433;SDS011;1730;41.932;25.548;2023-04-01T22:28:04;2.30;;;2.20;;
3433;SDS011;1730;41.932;25.548;2023-04-01T22:30:47;3.17;;;2.17;;
3433;SDS011;1730;41.932;25.548;2023-04-01T22:35:50;2.33;;;2.23;;
3433;SDS011;1730;41.932;25.548;2023-04-01T22:38:31;3.83;;;2.13;;
3433;SDS011;1730;41.932;25.548;2023-04-01T22:41:27;1.90;;;1.80;;
3433;SDS011;1730;41.932;25.548;2023-04-01T22:44:03;2.00;;;1.90;;
3433;SDS011;1730;41.932;25.548;2023-04-01T22:51:57;2.07;;;1.97;;
3433;SDS011;1730;41.932;25.548;2023-04-01T22:54:42;1.97;;;1.87;;
3433;SDS011;1730;41.932;25.548;2023-04-01T22:57:28;2.20;;;2.00;;
3433;SDS011;1730;41.932;25.548;2023-04-01T23:00:20;1.60;;;1.50;;
3433;SDS011;1730;41.932;25.548;2023-04-01T23:05:29;2.00;;;1.57;;
3433;SDS011;1730;41.932;25.548;2023-04-01T23:10:49;1.70;;;1.60;;
3433;SDS011;1730;41.932;25.548;2023-04-01T23:13:18;1.60;;;1.50;;
3433;SDS011;1730;41.932;25.548;2023-04-01T23:15:47;1.80;;;1.70;;
3433;SDS011;1730;41.932;25.548;2023-04-01T23:26:55;1.53;;;1.43;;
3433;SDS011;1730;41.932;25.548;2023-04-01T23:29:30;1.83;;;1.73;;
3433;SDS011;1730;41.932;25.548;2023-04-01T23:32:02;1.60;;;1.50;;
3433;SDS011;1730;41.932;25.548;2023-04-01T23:34:34;1.70;;;1.60;;
3433;SDS011;1730;41.932;25.548;2023-04-01T23:37:05;1.73;;;1.63;;
3433;SDS011;1730;41.932;25.548;2023-04-01T23:39:41;1.53;;;1.43;;
3433;SDS011;1730;41.932;25.548;2023-04-01T23:44:38;1.50;;;1.40;;
3433;SDS011;1730;41.932;25.548;2023-04-01T23:47:04;1.57;;;1.47;;
3433;SDS011;1730;41.932;25.548;2023-04-01T23:49:41;1.53;;;1.43;;
3433;SDS011;1730;41.932;25.548;2023-04-01T23:54:56;2.40;;;1.37;;
3433;SDS011;1730;41.932;25.548;2023-04-01T23:57:29;1.70;;;1.60;;
